createdAt,value
2022-11-20T00:01:50.976Z,101788.81
2022-11-20T00:06:56.351Z,101785.75
2022-11-20T00:11:59.948Z,101792.63
2022-11-20T00:17:03.536Z,101798.44
2022-11-20T00:22:09.673Z,101789.94
2022-11-20T00:27:13.229Z,101784.13
2022-11-20T00:32:16.818Z,101793.00
2022-11-20T00:37:28.276Z,101791.72
2022-11-20T00:42:31.865Z,101792.03
2022-11-20T00:47:35.416Z,101803.75
2022-11-20T00:52:40.594Z,101793.28
2022-11-20T00:57:44.142Z,101809.47
2022-11-20T01:02:47.737Z,101805.31
2022-11-20T01:07:52.905Z,101814.25
2022-11-20T01:12:56.413Z,101813.50
2022-11-20T01:17:59.953Z,101820.50
2022-11-20T01:23:05.689Z,101821.75
2022-11-20T01:28:09.281Z,101833.97
2022-11-20T01:33:12.797Z,101822.81
2022-11-20T01:38:19.407Z,101835.78
2022-11-20T01:43:23.598Z,101841.22
2022-11-20T01:48:31.908Z,101843.03
2022-11-20T01:53:38.940Z,101853.47
2022-11-20T01:58:47.824Z,101845.78
2022-11-20T02:03:52.339Z,101846.66
2022-11-20T02:08:57.552Z,101849.38
2022-11-20T02:14:01.755Z,101859.88
2022-11-20T02:19:10.688Z,101858.25
2022-11-20T02:24:17.159Z,101863.53
2022-11-20T02:29:27.184Z,101859.13
2022-11-20T02:34:30.751Z,101874.13
2022-11-20T02:39:35.998Z,101867.19
2022-11-20T02:44:39.619Z,101880.28
2022-11-20T02:49:43.201Z,101883.72
2022-11-20T02:54:49.489Z,101886.34
2022-11-20T02:59:52.309Z,101885.53
2022-11-20T03:04:55.840Z,101892.47
2022-11-20T03:10:01.018Z,101890.72
2022-11-20T03:15:05.258Z,101895.94
2022-11-20T03:20:10.605Z,101889.00
2022-11-20T03:25:15.912Z,101908.94
2022-11-20T03:30:19.569Z,101899.41
2022-11-20T03:35:23.258Z,101903.78
2022-11-20T03:40:28.431Z,101909.88
2022-11-20T03:45:34.136Z,101908.09
2022-11-20T03:50:37.707Z,101912.44
2022-11-20T03:55:42.963Z,101924.59
2022-11-20T04:00:46.530Z,101921.09
2022-11-20T04:05:50.055Z,101928.88
2022-11-20T04:10:55.212Z,101928.84
2022-11-20T04:15:59.980Z,101937.53
2022-11-20T04:21:04.040Z,101923.66
2022-11-20T04:26:10.828Z,101932.38
2022-11-20T04:31:15.734Z,101933.19
2022-11-20T04:36:21.310Z,101940.03
2022-11-20T04:41:28.470Z,101934.88
2022-11-20T04:46:33.564Z,101945.22
2022-11-20T04:51:37.428Z,101941.72
2022-11-20T04:56:42.622Z,101951.22
2022-11-20T05:01:46.180Z,101965.09
2022-11-20T05:06:51.076Z,101968.56
2022-11-20T05:11:56.703Z,101973.66
2022-11-20T05:17:00.287Z,101973.50
2022-11-20T05:22:03.840Z,101973.53
2022-11-20T05:27:09.966Z,101983.94
2022-11-20T05:32:13.538Z,101988.91
2022-11-20T05:37:17.072Z,101990.47
2022-11-20T05:42:22.298Z,101989.59
2022-11-20T05:47:25.856Z,101995.56
2022-11-20T05:52:31.051Z,102004.19
2022-11-20T05:57:36.366Z,102006.66
2022-11-20T06:02:39.973Z,102011.00
2022-11-20T06:07:43.568Z,102016.13
2022-11-20T06:12:48.799Z,102015.41
2022-11-20T06:17:54.585Z,102025.78
2022-11-20T06:22:58.197Z,102014.50
2022-11-20T06:28:04.415Z,102026.78
2022-11-20T06:33:07.936Z,102026.72
2022-11-20T06:38:11.484Z,102017.22
2022-11-20T06:43:16.653Z,102019.63
2022-11-20T06:48:20.214Z,102022.25
2022-11-20T06:53:24.498Z,102026.41
2022-11-20T06:58:31.796Z,102027.38
2022-11-20T07:03:35.349Z,102024.78
2022-11-20T07:08:39.183Z,102028.97
2022-11-20T07:13:45.038Z,102035.06
2022-11-20T07:18:50.807Z,102040.03
2022-11-20T07:23:54.749Z,102042.72
2022-11-20T07:28:59.937Z,102048.56
2022-11-20T07:34:03.615Z,102043.34
2022-11-20T07:39:07.314Z,102044.44
2022-11-20T07:44:12.555Z,102043.47
2022-11-20T07:49:16.105Z,102045.94
2022-11-20T07:54:19.656Z,102040.75
2022-11-20T07:59:24.905Z,102055.50
2022-11-20T08:04:28.464Z,102049.16
2022-11-20T08:09:32.012Z,102044.00
2022-11-20T08:14:37.164Z,102043.16
2022-11-20T08:19:40.679Z,102050.94
2022-11-20T08:24:44.200Z,102038.63
2022-11-20T08:29:49.409Z,102042.81
2022-11-20T08:34:52.958Z,102046.41
2022-11-20T08:39:56.530Z,102041.94
2022-11-20T08:45:01.745Z,102036.03
2022-11-20T08:50:05.656Z,102034.66
2022-11-20T08:55:10.573Z,102030.44
2022-11-20T09:00:17.508Z,102033.69
2022-11-20T09:05:21.042Z,102019.78
2022-11-20T09:10:25.571Z,102018.97
2022-11-20T09:15:31.749Z,102011.22
2022-11-20T09:20:35.301Z,102021.38
2022-11-20T09:25:39.055Z,102028.13
2022-11-20T09:30:44.231Z,102026.41
2022-11-20T09:35:47.840Z,102023.72
2022-11-20T09:40:59.474Z,102025.28
2022-11-20T09:46:16.172Z,102024.44
2022-11-20T09:51:29.904Z,102023.59
2022-11-20T09:56:38.683Z,102032.56
2022-11-20T10:01:43.968Z,102043.31
2022-11-20T10:07:30.388Z,102044.28
2022-11-20T10:12:29.610Z,102048.94
2022-11-20T10:18:05.398Z,102046.56
2022-11-20T10:23:31.602Z,102050.75
2022-11-20T10:28:57.148Z,102045.34
2022-11-20T10:34:12.679Z,102046.16
2022-11-20T10:39:23.779Z,102049.78
2022-11-20T10:44:30.464Z,102046.03
2022-11-20T10:49:36.514Z,102044.25
2022-11-20T10:54:49.326Z,102045.78
2022-11-20T11:00:05.225Z,102044.19
2022-11-20T11:05:24.642Z,102036.63
2022-11-20T11:10:37.857Z,102047.88
2022-11-20T11:15:42.685Z,102039.03
2022-11-20T11:20:55.238Z,102040.75
2022-11-20T11:26:00.462Z,102044.03
2022-11-20T11:31:04.040Z,102054.50
2022-11-20T11:36:21.693Z,102057.91
2022-11-20T11:41:28.334Z,102060.31
2022-11-20T11:46:35.278Z,102054.09
2022-11-20T11:51:41.241Z,102063.59
2022-11-20T11:56:45.713Z,102058.41
2022-11-20T12:01:55.301Z,102061.75
2022-11-20T12:07:31.053Z,102067.31
2022-11-20T12:12:37.714Z,102068.72
2022-11-20T12:17:41.282Z,102074.09
2022-11-20T12:22:55.204Z,102068.97
2022-11-20T12:28:23.273Z,102069.66
2022-11-20T12:34:11.372Z,102080.03
2022-11-20T12:39:34.286Z,102082.47
2022-11-20T12:45:03.871Z,102091.03
2022-11-20T12:50:17.629Z,102094.66
2022-11-20T12:55:35.526Z,102101.50
2022-11-20T13:00:49.455Z,102092.13
2022-11-20T13:06:11.933Z,102097.91
2022-11-20T13:11:25.312Z,102104.84
2022-11-20T13:16:37.799Z,102107.06
2022-11-20T13:21:43.449Z,102104.34
2022-11-20T13:26:49.046Z,102122.59
2022-11-20T13:31:52.655Z,102114.69
2022-11-20T13:36:57.609Z,102109.41
2022-11-20T13:42:03.882Z,102115.91
2022-11-20T13:47:22.651Z,102108.75
2022-11-20T13:52:39.614Z,102124.22
2022-11-20T13:57:59.769Z,102119.19
2022-11-20T14:03:15.434Z,102134.38
2022-11-20T14:08:29.785Z,102136.53
2022-11-20T14:13:35.082Z,102145.94
2022-11-20T14:18:38.660Z,102139.19
2022-11-20T14:23:42.205Z,102138.47
2022-11-20T14:28:52.397Z,102144.38
2022-11-20T14:33:56.863Z,102146.97
2022-11-20T14:39:01.361Z,102152.03
2022-11-20T14:44:07.508Z,102151.22
2022-11-20T14:49:13.326Z,102163.31
2022-11-20T14:54:18.200Z,102163.22
2022-11-20T14:59:27.287Z,102174.09
2022-11-20T15:04:31.024Z,102180.19
2022-11-20T15:09:34.656Z,102185.41
2022-11-20T15:14:39.880Z,102186.84
2022-11-20T15:19:43.480Z,102206.09
2022-11-20T15:24:47.117Z,102200.97
2022-11-20T15:29:52.364Z,102203.25
2022-11-20T15:34:55.900Z,102204.06
2022-11-20T15:39:59.533Z,102218.44
2022-11-20T15:45:05.102Z,102219.59
2022-11-20T15:50:18.774Z,102223.47
2022-11-20T15:55:23.124Z,102228.09
2022-11-20T16:00:28.377Z,102231.13
2022-11-20T16:05:32.360Z,102230.47
2022-11-20T16:10:35.913Z,102243.81
2022-11-20T16:15:41.174Z,102246.41
2022-11-20T16:20:45.477Z,102257.97
2022-11-20T16:25:49.627Z,102261.84
2022-11-20T16:30:54.794Z,102266.50
2022-11-20T16:35:58.349Z,102259.91
2022-11-20T16:41:02.968Z,102261.00
2022-11-20T16:46:08.144Z,102262.97
2022-11-20T16:51:13.155Z,102277.84
2022-11-20T16:56:17.837Z,102268.28
2022-11-20T17:01:24.485Z,102276.06
2022-11-20T17:06:29.527Z,102282.84
2022-11-20T17:11:33.092Z,102281.72
2022-11-20T17:16:39.020Z,102283.34
2022-11-20T17:21:42.544Z,102274.50
2022-11-20T17:26:46.737Z,102267.31
2022-11-20T17:31:52.353Z,102274.13
2022-11-20T17:36:55.892Z,102277.38
2022-11-20T17:41:59.505Z,102274.50
2022-11-20T17:47:04.780Z,102278.63
2022-11-20T17:52:08.413Z,102283.63
2022-11-20T17:57:11.952Z,102279.06
2022-11-20T18:02:17.112Z,102284.19
2022-11-20T18:07:20.757Z,102276.94
2022-11-20T18:12:24.345Z,102278.53
2022-11-20T18:17:29.585Z,102285.28
2022-11-20T18:22:33.148Z,102281.50
2022-11-20T18:27:36.771Z,102277.56
2022-11-20T18:32:41.980Z,102276.66
2022-11-20T18:37:45.544Z,102266.31
2022-11-20T18:42:49.098Z,102268.78
2022-11-20T18:47:54.360Z,102262.47
2022-11-20T18:52:57.965Z,102253.78
2022-11-20T18:58:01.566Z,102253.53
2022-11-20T19:03:07.049Z,102247.41
2022-11-20T19:08:10.735Z,102233.25
2022-11-20T19:13:14.317Z,102231.28
2022-11-20T19:18:19.593Z,102230.41
2022-11-20T19:23:23.208Z,102223.38
2022-11-20T19:28:26.761Z,102215.03
2022-11-20T19:33:32.049Z,102199.75
2022-11-20T19:38:35.678Z,102202.47
2022-11-20T19:43:39.256Z,102180.41
2022-11-20T19:48:44.409Z,102182.09
2022-11-20T19:53:47.996Z,102175.09
2022-11-20T19:58:53.344Z,102158.22
2022-11-20T20:03:59.616Z,102154.75
2022-11-20T20:09:06.479Z,102146.63
2022-11-20T20:14:13.376Z,102127.88
2022-11-20T20:19:18.582Z,102126.16
2022-11-20T20:24:22.152Z,102116.53
2022-11-20T20:29:26.033Z,102109.31
2022-11-20T20:34:31.551Z,102105.31
2022-11-20T20:39:35.188Z,102097.94
2022-11-20T20:44:38.784Z,102092.56
2022-11-20T20:49:44.137Z,102086.88
2022-11-20T20:54:47.774Z,102086.00
2022-11-20T20:59:51.668Z,102082.53
2022-11-20T21:04:57.817Z,102071.22
2022-11-20T21:10:01.413Z,102068.44
2022-11-20T21:15:05.563Z,102058.03
2022-11-20T21:20:12.206Z,102046.56
2022-11-20T21:25:15.836Z,102037.63
2022-11-20T21:30:21.765Z,102034.28
2022-11-20T21:35:27.393Z,102027.97
2022-11-20T21:40:30.993Z,102023.50
2022-11-20T21:45:34.558Z,102017.31
2022-11-20T21:50:39.744Z,102012.56
2022-11-20T21:55:43.297Z,102017.69
2022-11-20T22:00:46.884Z,102004.03
2022-11-20T22:05:59.097Z,101992.94
2022-11-20T22:11:03.918Z,101989.44
2022-11-20T22:16:07.690Z,101982.50
2022-11-20T22:21:14.000Z,101975.28
2022-11-20T22:26:19.093Z,101969.84
2022-11-20T22:31:24.514Z,101969.13
2022-11-20T22:36:30.639Z,101961.50
2022-11-20T22:41:34.671Z,101965.78
2022-11-20T22:46:38.671Z,101962.28
2022-11-20T22:51:43.824Z,101957.03
2022-11-20T22:56:47.386Z,101958.78
2022-11-20T23:01:50.957Z,101955.47
2022-11-20T23:06:56.166Z,101945.09
2022-11-20T23:11:59.766Z,101942.72
2022-11-20T23:17:03.333Z,101945.44
2022-11-20T23:22:08.572Z,101945.88
2022-11-20T23:27:12.114Z,101940.91
2022-11-20T23:32:15.655Z,101947.50
2022-11-20T23:37:20.896Z,101934.81
2022-11-20T23:42:24.511Z,101934.41
2022-11-20T23:47:28.127Z,101936.38
2022-11-20T23:52:40.161Z,101928.88
2022-11-20T23:57:48.119Z,101936.41
